Accueil
METAR-TAF:

METAR-TAF

Aéroports :

Aéroport d'Iakoutsk

Iakoutsk, Russie

latitude: 62-01N, longitude: 129-43E, altitude: 103 m

Observation

Le bulletin a été fait il y a 12 minutes, à 05:30 UTC
Vent 10 kt de sud-est
Température 22°C
Humidité 41%
Pression 1003 hPa
Visibilité 10 km ou plus
pas de nuages en-dessous de 1500 mètres et pas de cumulonimbus.

METAR: UEEE 150530Z 13005MPS CAVOK 22/08 Q1003 R23L/09//70 NOSIG RMK QFE743

Heure: 14:42 (05:42 UTC)

Prévision

Le bulletin a été fait il y a 42 minutes, à 05:00 UTC
Prévision valable du 15 à 06 UTC au 16 à 12 UTC
Vent 6 kt de sud/sud-est avec des rafales jusqu'à 16 kt
Visibilité 10 km ou plus
Nuages épars à une hauteur de 3000 ft, Cumulonimbus.
Ciel couvert à une hauteur de 7000 ft
Temporairement
du 15 à 06 UTC au 15 à 12 UTC
Vent 16 kt de direction variable
faibles averses de pluie

TAF: UEEE 150500Z 1506/1612 16003G08MPS 9999 SCT030CB OVC070 TEMPO 1506/1512 VRB08MPS -SHRA

Observations et prévisions météorologiques de plus de 4000 aéroports (messages METAR et TAF).

Les stations disponibles sont représentées par des disques jaunes et rouges sur la carte.

Passer la souris dessus pour voir le nom de la station.

Cliquer dessus pour voir les observations et prévisions météorologiques.

Pour changer de carte: cliquez sur les boutons verts avec une croix noire pour zoomer, sur le bouton vert avec un tiret pour effectuer un zoom arrière, ou sur les flèches vertes pour les cartes adjacentes.


METAR-TAF: